首页
METAR-TAF:

METAR-TAF

机场 :

埃夫勒, 法国

纬度: 49-01N, 经度: 001-13E, 海拔: 141米

当前天气观测

该预报发布于43分钟前的20:00 UTC
温度 4°C
湿度 93%
气压 1002 hPa
能见度10公里或以上
多云层高于4600英尺
多云层高于6000英尺

METAR: LFOE 122000Z AUTO /////KT 9999 BKN046 BKN060 04/03 Q1002

时间: 21:43 (20:43 UTC)

预报

该预报发布于43分钟前的20:00 UTC
预报有效从12日的 21点(UTC)到 13日的 21点(UTC)
风速10节,风向西南
能见度10公里或以上
多云层高于5000英尺
成为
从 12日的 23点(UTC)到 13日的 01点(UTC)
多云层高于1400英尺
成为
从 13日的 01点(UTC)到 13日的 03点(UTC)
多云层高于1000英尺
成为
从 13日的 10点(UTC)到 13日的 12点(UTC)
散云层高于2000英尺
短暂存在
从 13日的 13点(UTC)到 13日的 16点(UTC)
散云层高于1000英尺
散云层高于2000英尺, 塔状积云.

TAF: LFOE 122000Z 1221/1321 22010KT 9999 BKN050 BECMG 1223/1301 BKN014 BECMG 1301/1303 BKN010 BECMG 1310/1312 SCT020 TEMPO 1313/1316 SCT010 SCT020TCU

超过4000个机场的气象观测和天气预报(METAR&TAF报告)。

可查询的气象台以黄色和红色小点在地图上表示。

将鼠标移到小点上方,可查看气象台名称。

然后点击查看天气观测和预报。

如需切换地图:点击带黑十字的绿色按钮放大地图;点击带横线的绿色按钮缩小地图;或者点击绿色箭头查看邻近地区的地图。


METAR-TAF: